createdAt,value
2024-04-18T00:00:34.957Z,73.50
2024-04-18T00:01:34.898Z,68.90
2024-04-18T00:02:34.827Z,67.10
2024-04-18T00:03:34.905Z,66.80
2024-04-18T00:04:34.957Z,64.30
2024-04-18T00:05:34.805Z,62.50
2024-04-18T00:06:34.789Z,63.00
2024-04-18T00:07:34.758Z,60.20
2024-04-18T00:08:34.745Z,60.30
2024-04-18T00:09:34.797Z,61.60
2024-04-18T00:10:34.722Z,65.20
2024-04-18T00:11:34.708Z,65.10
2024-04-18T00:12:34.736Z,62.00
2024-04-18T00:13:34.700Z,63.20
2024-04-18T00:14:34.699Z,64.10
2024-04-18T00:15:34.700Z,65.70
2024-04-18T00:16:34.650Z,67.60
2024-04-18T00:17:34.726Z,58.40
2024-04-18T00:18:34.723Z,62.60
2024-04-18T00:19:34.628Z,64.60
2024-04-18T00:20:34.620Z,62.00
2024-04-18T00:21:34.654Z,61.40
2024-04-18T00:22:34.613Z,63.30
2024-04-18T00:23:34.590Z,61.60
2024-04-18T00:24:34.574Z,66.80
2024-04-18T00:25:34.511Z,68.80
2024-04-18T00:26:34.528Z,65.70
2024-04-18T00:27:34.552Z,57.30
2024-04-18T00:28:34.491Z,59.30
2024-04-18T00:29:34.473Z,54.40
2024-04-18T00:30:34.521Z,55.10
2024-04-18T00:31:34.442Z,48.40
2024-04-18T00:32:34.504Z,48.50
2024-04-18T00:33:34.440Z,51.80
2024-04-18T00:34:34.467Z,52.90
2024-04-18T00:35:34.373Z,49.90
2024-04-18T00:36:34.461Z,55.20
2024-04-18T00:37:34.378Z,56.80
2024-04-18T00:38:34.372Z,57.30
2024-04-18T00:39:34.384Z,60.50
2024-04-18T00:40:34.329Z,62.00
2024-04-18T00:41:34.326Z,58.10
2024-04-18T00:42:34.306Z,61.60
2024-04-18T00:43:34.293Z,53.00
2024-04-18T00:44:34.277Z,42.20
2024-04-18T00:45:34.337Z,43.50
2024-04-18T00:46:34.267Z,46.30
2024-04-18T00:47:34.290Z,49.60
2024-04-18T00:48:34.271Z,46.20
2024-04-18T00:49:34.226Z,42.10
2024-04-18T00:50:34.218Z,41.20
2024-04-18T00:51:34.239Z,40.60
2024-04-18T00:52:34.170Z,41.10
2024-04-18T00:53:34.167Z,39.00
2024-04-18T00:54:34.180Z,42.10
2024-04-18T00:55:34.145Z,41.60
2024-04-18T00:56:34.131Z,44.00
2024-04-18T00:57:34.155Z,41.80
2024-04-18T00:58:34.085Z,41.10
2024-04-18T00:59:34.076Z,44.10
2024-04-18T01:00:34.180Z,43.50
2024-04-18T01:01:34.070Z,41.10
2024-04-18T01:02:34.036Z,39.40
2024-04-18T01:03:34.151Z,39.60
2024-04-18T01:04:34.150Z,40.70
2024-04-18T01:05:34.029Z,40.70
2024-04-18T01:06:34.001Z,43.30
2024-04-18T01:07:33.981Z,44.20
2024-04-18T01:08:33.964Z,40.80
2024-04-18T01:09:33.990Z,41.30
2024-04-18T01:10:33.938Z,40.30
2024-04-18T01:11:34.138Z,39.90
2024-04-18T01:12:33.936Z,41.50
2024-04-18T01:13:33.888Z,41.90
2024-04-18T01:14:33.902Z,42.60
2024-04-18T01:15:33.938Z,42.80
2024-04-18T01:16:33.850Z,39.60
2024-04-18T01:17:33.952Z,37.50
2024-04-18T01:18:33.874Z,39.50
2024-04-18T01:19:33.830Z,41.70
2024-04-18T01:20:33.808Z,41.60
2024-04-18T01:21:33.825Z,44.10
2024-04-18T01:22:33.776Z,41.70
2024-04-18T01:23:33.776Z,43.30
2024-04-18T01:24:34.085Z,43.20
2024-04-18T01:25:33.738Z,42.00
2024-04-18T01:26:33.751Z,40.00
2024-04-18T01:27:33.735Z,42.00
2024-04-18T01:28:33.719Z,44.70
2024-04-18T01:29:33.676Z,42.00
2024-04-18T01:30:33.687Z,44.80
2024-04-18T01:31:33.650Z,43.60
2024-04-18T01:32:33.720Z,39.60
2024-04-18T01:33:33.926Z,41.00
2024-04-18T01:34:33.743Z,41.00
2024-04-18T01:35:33.612Z,40.00
2024-04-18T01:36:33.631Z,41.50
2024-04-18T01:37:33.588Z,42.30
2024-04-18T01:38:33.559Z,40.90
2024-04-18T01:39:33.553Z,41.80
2024-04-18T01:40:34.883Z,42.50
2024-04-18T01:41:33.514Z,41.90
2024-04-18T01:42:33.555Z,41.60
2024-04-18T01:43:33.490Z,42.70
2024-04-18T01:44:33.480Z,40.90
2024-04-18T01:45:33.522Z,41.00
2024-04-18T01:46:33.480Z,40.80
2024-04-18T01:47:33.607Z,42.40
2024-04-18T01:48:33.563Z,39.90
2024-04-18T01:49:33.407Z,40.00
2024-04-18T01:50:33.402Z,41.40
2024-04-18T01:51:33.445Z,40.30
2024-04-18T01:52:33.375Z,40.50
2024-04-18T01:53:33.372Z,40.50
2024-04-18T01:54:33.435Z,40.70
2024-04-18T01:55:33.332Z,40.60
2024-04-18T01:56:33.352Z,39.90
2024-04-18T01:57:33.323Z,41.40
2024-04-18T01:58:33.306Z,40.90
2024-04-18T01:59:33.290Z,40.20
2024-04-18T02:00:33.413Z,43.70
2024-04-18T02:01:33.354Z,39.90
2024-04-18T02:02:33.235Z,41.30
2024-04-18T02:03:33.292Z,42.70
2024-04-18T02:04:33.265Z,42.80
2024-04-18T02:05:33.250Z,40.50
2024-04-18T02:06:33.233Z,43.80
2024-04-18T02:07:33.176Z,43.80
2024-04-18T02:08:33.170Z,44.10
2024-04-18T02:09:33.210Z,42.90
2024-04-18T02:10:33.164Z,42.60
2024-04-18T02:11:33.128Z,41.80
2024-04-18T02:12:33.199Z,41.60
2024-04-18T02:13:33.104Z,41.40
2024-04-18T02:14:33.110Z,44.20
2024-04-18T02:15:33.146Z,42.50
2024-04-18T02:16:33.082Z,40.90
2024-04-18T02:17:33.124Z,42.10
2024-04-18T02:18:33.106Z,44.00
2024-04-18T02:19:33.064Z,42.60
2024-04-18T02:20:33.025Z,42.80
2024-04-18T02:21:33.078Z,43.90
2024-04-18T02:22:32.998Z,43.70
2024-04-18T02:23:32.978Z,44.20
2024-04-18T02:24:33.002Z,40.40
2024-04-18T02:25:32.946Z,40.90
2024-04-18T02:26:32.943Z,44.10
2024-04-18T02:27:32.910Z,42.70
2024-04-18T02:28:32.931Z,42.80
2024-04-18T02:29:32.909Z,44.10
2024-04-18T02:30:33.000Z,42.70
2024-04-18T02:31:32.863Z,44.70
2024-04-18T02:32:32.912Z,41.10
2024-04-18T02:33:32.953Z,35.90
2024-04-18T02:34:32.841Z,36.30
2024-04-18T02:35:32.806Z,36.10
2024-04-18T02:36:32.835Z,37.60
2024-04-18T02:37:32.815Z,36.10
2024-04-18T02:38:32.817Z,35.50
2024-04-18T02:39:32.776Z,34.50
2024-04-18T02:40:32.754Z,35.70
2024-04-18T02:41:32.736Z,34.30
2024-04-18T02:42:32.800Z,28.90
2024-04-18T02:43:32.701Z,28.60
2024-04-18T02:44:32.700Z,31.70
2024-04-18T02:45:32.780Z,31.40
2024-04-18T02:46:32.674Z,32.10
2024-04-18T02:47:32.880Z,31.30
2024-04-18T02:48:32.677Z,29.50
2024-04-18T02:49:32.627Z,28.50
2024-04-18T02:50:32.616Z,27.60
2024-04-18T02:51:32.663Z,29.50
2024-04-18T02:52:32.613Z,29.10
2024-04-18T02:53:32.569Z,28.80
2024-04-18T02:54:32.681Z,27.90
2024-04-18T02:55:32.539Z,27.50
2024-04-18T02:56:32.560Z,29.40
2024-04-18T02:57:32.586Z,28.20
2024-04-18T02:58:32.521Z,30.00
2024-04-18T02:59:32.506Z,30.60
2024-04-18T03:00:32.651Z,30.20
2024-04-18T03:01:32.513Z,29.40
2024-04-18T03:02:32.516Z,30.80
2024-04-18T03:03:32.453Z,30.80
2024-04-18T03:04:32.498Z,28.70
2024-04-18T03:05:32.437Z,30.90
2024-04-18T03:06:32.442Z,30.40
2024-04-18T03:07:32.382Z,29.80
2024-04-18T03:08:32.394Z,31.80
2024-04-18T03:09:32.428Z,31.40
2024-04-18T03:10:32.367Z,30.60
2024-04-18T03:11:32.340Z,29.40
2024-04-18T03:12:32.362Z,31.90
2024-04-18T03:13:32.314Z,32.00
2024-04-18T03:14:32.308Z,33.60
2024-04-18T03:15:32.366Z,32.20
2024-04-18T03:16:32.303Z,31.90
2024-04-18T03:17:32.330Z,32.60
2024-04-18T03:18:32.395Z,33.50
2024-04-18T03:19:32.253Z,34.70
2024-04-18T03:20:32.249Z,34.40
2024-04-18T03:21:32.240Z,34.70
2024-04-18T03:22:32.218Z,35.60
2024-04-18T03:23:32.308Z,36.40
2024-04-18T03:24:32.368Z,34.40
2024-04-18T03:25:32.282Z,34.10
2024-04-18T03:26:32.318Z,32.50
2024-04-18T03:27:32.228Z,34.10
2024-04-18T03:28:32.113Z,34.30
2024-04-18T03:29:32.118Z,33.30
2024-04-18T03:30:32.155Z,34.10
2024-04-18T03:31:32.118Z,34.40
2024-04-18T03:32:32.146Z,32.30
2024-04-18T03:33:32.125Z,34.70
2024-04-18T03:34:32.060Z,34.00
2024-04-18T03:35:32.043Z,32.70
2024-04-18T03:36:32.028Z,32.70
2024-04-18T03:37:32.888Z,32.20
2024-04-18T03:38:32.034Z,32.30
2024-04-18T03:39:31.987Z,33.60
2024-04-18T03:40:31.981Z,34.60
2024-04-18T03:41:31.934Z,33.00
2024-04-18T03:42:31.958Z,33.60
2024-04-18T03:43:31.927Z,33.80
2024-04-18T03:44:31.961Z,31.90
2024-04-18T03:45:31.947Z,33.70
2024-04-18T03:46:31.901Z,32.50
2024-04-18T03:47:31.967Z,32.90
2024-04-18T03:48:31.986Z,32.10
2024-04-18T03:49:31.850Z,34.50
2024-04-18T03:50:31.834Z,32.30
2024-04-18T03:51:31.914Z,30.80
2024-04-18T03:52:31.830Z,31.40
2024-04-18T03:53:31.776Z,31.20
2024-04-18T03:54:39.836Z,30.90
2024-04-18T03:55:32.773Z,30.00
2024-04-18T03:56:31.750Z,32.10
2024-04-18T03:57:31.815Z,31.10
2024-04-18T03:58:31.718Z,32.20
2024-04-18T03:59:31.744Z,31.30
2024-04-18T04:00:31.742Z,31.00
2024-04-18T04:01:31.847Z,28.70
2024-04-18T04:02:31.792Z,29.50
2024-04-18T04:03:31.733Z,30.30
2024-04-18T04:04:31.644Z,30.90
2024-04-18T04:05:31.630Z,32.10
2024-04-18T04:06:33.538Z,32.10
2024-04-18T04:07:31.625Z,32.70
2024-04-18T04:08:31.593Z,33.00
2024-04-18T04:09:31.720Z,30.60
2024-04-18T04:10:31.569Z,29.80
2024-04-18T04:11:31.605Z,29.80
2024-04-18T04:12:31.555Z,31.40
2024-04-18T04:13:31.539Z,31.70
2024-04-18T04:14:31.509Z,30.00
2024-04-18T04:15:31.525Z,30.90
2024-04-18T04:16:31.497Z,30.60
2024-04-18T04:17:31.477Z,31.80
2024-04-18T04:18:31.583Z,29.80
2024-04-18T04:19:31.509Z,30.70
2024-04-18T04:20:31.450Z,31.60
2024-04-18T04:21:31.433Z,32.40
2024-04-18T04:22:33.470Z,32.70
2024-04-18T04:23:31.385Z,30.60
2024-04-18T04:24:31.446Z,30.10
2024-04-18T04:25:31.403Z,30.40
2024-04-18T04:26:31.347Z,30.30
2024-04-18T04:27:31.384Z,30.80
2024-04-18T04:28:31.342Z,32.00
2024-04-18T04:29:31.323Z,30.80
2024-04-18T04:30:31.413Z,29.90
2024-04-18T04:31:31.303Z,28.60
2024-04-18T04:32:31.328Z,30.50
2024-04-18T04:33:31.299Z,30.90
2024-04-18T04:34:31.248Z,31.00
2024-04-18T04:35:31.256Z,32.80
2024-04-18T04:36:31.232Z,31.20
2024-04-18T04:37:31.217Z,30.20
2024-04-18T04:38:31.185Z,31.60
2024-04-18T04:39:31.202Z,32.50
2024-04-18T04:40:31.169Z,33.50
2024-04-18T04:41:31.173Z,32.10
2024-04-18T04:42:31.167Z,32.20
2024-04-18T04:43:31.173Z,82.90
2024-04-18T04:44:31.119Z,104.60
2024-04-18T04:45:31.109Z,56.10
2024-04-18T04:46:31.077Z,108.80
2024-04-18T04:47:31.094Z,37.00
2024-04-18T04:48:34.003Z,86.50
2024-04-18T04:49:31.112Z,41.50
2024-04-18T04:50:31.033Z,44.60
2024-04-18T04:51:31.062Z,38.50
2024-04-18T04:52:31.006Z,37.30
2024-04-18T04:53:31.114Z,38.70
2024-04-18T04:54:30.990Z,37.90
2024-04-18T04:55:30.969Z,36.40
2024-04-18T04:56:30.948Z,37.90
2024-04-18T04:57:30.978Z,38.70
2024-04-18T04:58:30.946Z,38.40
2024-04-18T04:59:30.915Z,38.90
2024-04-18T05:00:30.927Z,38.60
2024-04-18T05:01:30.924Z,36.90
2024-04-18T05:02:30.946Z,37.80
2024-04-18T05:03:30.965Z,34.70
2024-04-18T05:04:30.838Z,36.90
2024-04-18T05:05:30.856Z,35.10
2024-04-18T05:06:30.833Z,34.00
2024-04-18T05:07:30.839Z,37.60
2024-04-18T05:08:30.793Z,35.00
2024-04-18T05:09:30.818Z,34.40
2024-04-18T05:10:30.768Z,34.80
2024-04-18T05:11:30.813Z,34.00
2024-04-18T05:12:30.775Z,35.00
2024-04-18T05:13:30.725Z,34.40
2024-04-18T05:14:30.707Z,32.90
2024-04-18T05:15:30.722Z,33.80
2024-04-18T05:16:30.771Z,32.40
2024-04-18T05:17:30.686Z,33.30
2024-04-18T05:18:30.673Z,33.20
2024-04-18T05:19:30.667Z,33.50
2024-04-18T05:20:30.647Z,31.00
2024-04-18T05:21:30.641Z,32.20
2024-04-18T05:22:30.617Z,33.00
2024-04-18T05:23:30.640Z,33.30
2024-04-18T05:24:30.663Z,34.60
2024-04-18T05:25:30.597Z,33.10
2024-04-18T05:26:30.571Z,30.90
2024-04-18T05:27:30.599Z,31.00
2024-04-18T05:28:30.543Z,31.20
2024-04-18T05:29:30.530Z,30.00
2024-04-18T05:30:30.566Z,32.20
2024-04-18T05:31:30.505Z,32.50
2024-04-18T05:32:30.569Z,29.70
2024-04-18T05:33:30.578Z,28.90
2024-04-18T05:34:30.467Z,30.10
2024-04-18T05:35:30.464Z,29.70
2024-04-18T05:36:30.457Z,29.80
2024-04-18T05:37:30.419Z,30.30
2024-04-18T05:38:30.408Z,29.60
2024-04-18T05:39:30.443Z,29.10
2024-04-18T05:40:30.443Z,29.90
2024-04-18T05:41:30.365Z,30.10
2024-04-18T05:42:30.376Z,30.10
2024-04-18T05:43:31.857Z,60.80
2024-04-18T05:44:30.329Z,31.00
2024-04-18T05:45:30.351Z,28.90
2024-04-18T05:46:30.299Z,29.50
2024-04-18T05:47:30.375Z,30.20
2024-04-18T05:48:30.296Z,29.50
2024-04-18T05:49:30.299Z,30.70
2024-04-18T05:50:30.243Z,30.30
2024-04-18T05:51:30.269Z,29.90
2024-04-18T05:52:30.228Z,27.70
2024-04-18T05:53:30.228Z,28.60
2024-04-18T05:54:30.221Z,28.00
2024-04-18T05:55:30.188Z,28.80
2024-04-18T05:56:30.174Z,28.20
2024-04-18T05:57:30.236Z,27.70
2024-04-18T05:58:30.173Z,27.20
2024-04-18T05:59:30.127Z,27.30
2024-04-18T06:00:30.136Z,30.40
2024-04-18T06:01:30.169Z,45.30
2024-04-18T06:02:30.122Z,29.20
2024-04-18T06:03:30.175Z,27.60
2024-04-18T06:04:30.099Z,26.40
2024-04-18T06:05:30.055Z,25.20
2024-04-18T06:06:30.077Z,24.70
2024-04-18T06:07:30.044Z,23.80
2024-04-18T06:08:30.034Z,23.80
2024-04-18T06:09:30.015Z,23.30
2024-04-18T06:10:29.999Z,24.50
2024-04-18T06:11:29.995Z,22.20
2024-04-18T06:12:30.069Z,23.40
2024-04-18T06:13:29.958Z,20.80
2024-04-18T06:14:29.925Z,21.70
2024-04-18T06:15:29.938Z,21.10
2024-04-18T06:16:29.984Z,22.00
2024-04-18T06:17:29.931Z,23.00
2024-04-18T06:18:29.944Z,82.80
2024-04-18T06:19:30.071Z,91.20
2024-04-18T06:20:29.862Z,32.70
2024-04-18T06:21:29.871Z,26.20
2024-04-18T06:22:29.816Z,21.20
2024-04-18T06:23:29.838Z,21.60
2024-04-18T06:24:29.816Z,22.90
2024-04-18T06:25:29.811Z,20.90
2024-04-18T06:26:29.780Z,21.40
2024-04-18T06:27:29.816Z,21.70
2024-04-18T06:28:29.743Z,21.30
2024-04-18T06:29:29.738Z,39.60
2024-04-18T06:30:29.731Z,28.00
2024-04-18T06:31:29.752Z,47.50
2024-04-18T06:32:29.812Z,20.20
2024-04-18T06:33:29.813Z,19.90
2024-04-18T06:34:29.725Z,22.00
2024-04-18T06:35:29.681Z,20.40
2024-04-18T06:36:29.703Z,19.80
2024-04-18T06:37:29.636Z,19.80
2024-04-18T06:38:29.619Z,18.40
2024-04-18T06:39:29.679Z,18.70
2024-04-18T06:40:29.639Z,18.40
2024-04-18T06:41:29.596Z,17.60
2024-04-18T06:42:29.596Z,18.10
2024-04-18T06:43:29.549Z,18.40
2024-04-18T06:44:29.545Z,18.60
2024-04-18T06:45:29.577Z,17.60
2024-04-18T06:46:29.525Z,18.20
2024-04-18T06:47:29.625Z,17.60
2024-04-18T06:48:29.581Z,17.50
2024-04-18T06:49:29.515Z,17.90
2024-04-18T06:50:29.493Z,19.00
2024-04-18T06:51:29.512Z,18.10
2024-04-18T06:52:29.426Z,18.00
2024-04-18T06:53:29.433Z,16.90
2024-04-18T06:54:29.433Z,17.50
2024-04-18T06:55:29.422Z,15.30
2024-04-18T06:56:29.397Z,16.40
2024-04-18T06:57:29.415Z,16.50
2024-04-18T06:58:29.363Z,16.40
2024-04-18T06:59:29.359Z,16.00
2024-04-18T07:00:29.345Z,16.30
2024-04-18T07:01:29.378Z,16.50
2024-04-18T07:02:29.298Z,16.50
2024-04-18T07:03:29.439Z,15.80
2024-04-18T07:04:29.443Z,16.60
2024-04-18T07:05:29.257Z,16.30
2024-04-18T07:06:29.266Z,16.00
2024-04-18T07:07:29.241Z,15.20
2024-04-18T07:08:29.238Z,16.00
2024-04-18T07:09:29.256Z,16.20
2024-04-18T07:10:29.196Z,16.40
2024-04-18T07:11:29.245Z,16.60
2024-04-18T07:12:29.216Z,16.90
2024-04-18T07:13:29.217Z,15.50
2024-04-18T07:14:29.139Z,14.90
2024-04-18T07:15:29.174Z,15.40
2024-04-18T07:16:29.110Z,16.40
2024-04-18T07:17:29.181Z,15.70
2024-04-18T07:18:29.159Z,16.10
2024-04-18T07:19:29.103Z,16.70
2024-04-18T07:20:29.047Z,14.60
2024-04-18T07:21:29.095Z,15.60
2024-04-18T07:22:29.069Z,15.90
2024-04-18T07:23:29.020Z,15.50
2024-04-18T07:24:29.032Z,15.00
2024-04-18T07:25:29.019Z,15.10
2024-04-18T07:26:28.988Z,14.30
2024-04-18T07:27:29.056Z,13.80
2024-04-18T07:28:28.960Z,13.70
2024-04-18T07:29:28.974Z,13.20
2024-04-18T07:30:28.949Z,12.40
2024-04-18T07:31:28.935Z,12.40
2024-04-18T07:32:28.958Z,13.00
2024-04-18T07:33:28.983Z,12.30
2024-04-18T07:34:28.886Z,11.30
2024-04-18T07:35:28.940Z,11.50
2024-04-18T07:36:28.878Z,11.60
2024-04-18T07:37:32.358Z,12.20
2024-04-18T07:38:28.865Z,11.80
2024-04-18T07:39:28.841Z,13.10
2024-04-18T07:40:28.814Z,12.30
2024-04-18T07:41:28.796Z,12.80
2024-04-18T07:42:28.795Z,12.40
2024-04-18T07:43:28.778Z,12.30
2024-04-18T07:44:28.734Z,11.60
2024-04-18T07:45:28.830Z,12.30
2024-04-18T07:46:28.741Z,12.90
2024-04-18T07:47:28.757Z,12.90
2024-04-18T07:48:28.806Z,13.30
2024-04-18T07:49:28.696Z,12.50
2024-04-18T07:50:28.689Z,13.00
2024-04-18T07:51:28.656Z,13.40
2024-04-18T07:52:28.755Z,13.60
2024-04-18T07:53:28.623Z,13.50
2024-04-18T07:54:28.650Z,14.30
2024-04-18T07:55:28.643Z,13.70
2024-04-18T07:56:29.075Z,13.10
2024-04-18T07:57:28.974Z,14.50
2024-04-18T07:58:29.055Z,14.20
2024-04-18T07:59:29.095Z,14.80
2024-04-18T08:00:29.526Z,13.50
2024-04-18T08:01:29.838Z,13.30
2024-04-18T08:02:30.536Z,10.90
2024-04-18T08:03:30.247Z,10.10
2024-04-18T08:04:50.068Z,12.20
2024-04-18T08:05:32.565Z,12.20
2024-04-18T08:06:32.633Z,12.00
2024-04-18T08:07:31.132Z,10.70
2024-04-18T08:08:30.898Z,10.90
2024-04-18T08:09:31.528Z,11.20
2024-04-18T08:10:36.391Z,11.80
2024-04-18T08:12:04.002Z,11.00
2024-04-18T08:12:32.372Z,11.10
2024-04-18T08:13:33.110Z,10.90
2024-04-18T08:14:33.071Z,10.70
2024-04-18T08:16:29.365Z,9.40
2024-04-18T08:17:28.445Z,10.10
2024-04-18T08:18:28.330Z,11.40
2024-04-18T08:19:28.276Z,8.90
2024-04-18T08:20:28.274Z,9.70
2024-04-18T08:21:28.311Z,9.50
2024-04-18T08:22:28.253Z,9.30
2024-04-18T08:23:28.249Z,8.30
2024-04-18T08:24:28.293Z,9.20
2024-04-18T08:25:28.198Z,9.60
2024-04-18T08:26:28.199Z,9.90
2024-04-18T08:27:28.231Z,9.40
2024-04-18T08:28:28.170Z,8.50
2024-04-18T08:29:28.160Z,9.60
2024-04-18T08:30:28.168Z,9.10
2024-04-18T08:31:28.181Z,8.90
2024-04-18T08:32:28.129Z,8.40
2024-04-18T08:33:28.123Z,7.50
2024-04-18T08:34:28.467Z,6.80
2024-04-18T08:35:28.086Z,6.30
2024-04-18T08:36:28.142Z,6.40
2024-04-18T08:37:28.059Z,6.00
2024-04-18T08:38:28.028Z,6.00
2024-04-18T08:39:28.101Z,6.40
2024-04-18T08:40:28.025Z,6.10
2024-04-18T08:41:28.026Z,6.30
2024-04-18T08:42:28.043Z,6.40
2024-04-18T08:43:27.969Z,6.20
2024-04-18T08:44:27.958Z,6.30
2024-04-18T08:45:27.944Z,6.40
2024-04-18T08:46:27.948Z,6.80
2024-04-18T08:47:27.995Z,6.80
2024-04-18T08:48:28.211Z,6.40
2024-04-18T08:49:27.923Z,6.80
2024-04-18T08:50:27.906Z,7.30
2024-04-18T08:51:27.914Z,6.50
2024-04-18T08:52:28.345Z,6.80
2024-04-18T08:53:27.832Z,7.10
2024-04-18T08:54:27.877Z,6.30
2024-04-18T08:55:27.825Z,6.00
2024-04-18T08:56:27.806Z,5.80
2024-04-18T08:57:27.812Z,5.70
2024-04-18T08:58:27.772Z,6.00
2024-04-18T08:59:27.756Z,5.40
2024-04-18T09:00:27.797Z,5.80
2024-04-18T09:01:27.718Z,5.50
2024-04-18T09:02:27.760Z,6.30
2024-04-18T09:03:27.728Z,5.90
2024-04-18T09:04:27.754Z,6.40
2024-04-18T09:05:27.691Z,5.90
2024-04-18T09:06:27.696Z,5.90
2024-04-18T09:07:27.645Z,5.90
2024-04-18T09:08:27.635Z,6.00
2024-04-18T09:09:27.700Z,6.10
2024-04-18T09:10:27.616Z,5.50
2024-04-18T09:11:27.609Z,5.60
2024-04-18T09:12:27.606Z,5.10
2024-04-18T09:13:27.565Z,5.40
2024-04-18T09:14:27.582Z,4.90
2024-04-18T09:15:27.584Z,5.20
2024-04-18T09:17:37.412Z,6.30
2024-04-18T09:18:37.608Z,6.30
2024-04-18T09:19:37.291Z,5.70
2024-04-18T09:20:37.293Z,5.60
2024-04-18T09:21:37.349Z,5.30
2024-04-18T09:22:37.258Z,5.30
2024-04-18T09:23:37.248Z,6.00
2024-04-18T09:24:37.280Z,5.50
2024-04-18T09:25:39.555Z,5.60
2024-04-18T09:26:37.225Z,5.60
2024-04-18T09:27:37.231Z,6.90
2024-04-18T09:28:37.183Z,5.90
2024-04-18T09:29:37.174Z,5.90
2024-04-18T09:30:37.249Z,5.30
2024-04-18T09:31:42.399Z,5.20
2024-04-18T09:32:38.190Z,5.20
2024-04-18T09:33:37.207Z,5.00
2024-04-18T09:34:37.097Z,4.50
2024-04-18T09:35:37.237Z,4.80
2024-04-18T09:36:37.107Z,4.70
2024-04-18T09:37:37.066Z,4.20
2024-04-18T09:38:37.039Z,4.30
2024-04-18T09:39:37.072Z,4.50
2024-04-18T09:40:37.001Z,3.90
2024-04-18T09:41:37.006Z,3.90
2024-04-18T09:42:37.140Z,3.80
2024-04-18T09:43:37.035Z,4.10
2024-04-18T09:44:36.944Z,4.80
2024-04-18T09:45:37.005Z,3.90
2024-04-18T09:46:36.925Z,3.20
2024-04-18T09:47:36.935Z,3.50
2024-04-18T09:48:37.023Z,3.40
2024-04-18T09:49:36.922Z,3.10
2024-04-18T09:50:36.882Z,3.40
2024-04-18T09:51:36.935Z,3.00
2024-04-18T09:52:36.840Z,3.10
2024-04-18T09:53:36.833Z,3.30
2024-04-18T09:54:36.864Z,2.90
2024-04-18T09:55:36.817Z,3.10
2024-04-18T09:56:36.784Z,3.10
2024-04-18T09:57:36.828Z,2.80
2024-04-18T09:58:36.780Z,3.00
2024-04-18T09:59:36.748Z,2.70
2024-04-18T10:00:36.790Z,2.80
2024-04-18T10:01:36.780Z,2.60
2024-04-18T10:02:36.735Z,2.30
2024-04-18T10:03:36.745Z,2.70
2024-04-18T10:04:36.691Z,2.10
2024-04-18T10:05:36.675Z,2.20
2024-04-18T10:06:36.656Z,2.20
2024-04-18T10:07:36.656Z,1.90
2024-04-18T10:08:36.623Z,2.10
2024-04-18T10:09:36.687Z,1.90
2024-04-18T10:10:36.613Z,2.00
2024-04-18T10:11:36.670Z,2.40
2024-04-18T10:12:36.588Z,2.20
2024-04-18T10:13:36.565Z,1.90
2024-04-18T10:14:36.559Z,2.00
2024-04-18T10:15:36.566Z,1.90
2024-04-18T10:16:36.561Z,2.10
2024-04-18T10:17:36.564Z,2.10
2024-04-18T10:18:36.829Z,1.80
2024-04-18T10:19:36.527Z,2.20
2024-04-18T10:20:36.449Z,1.90
2024-04-18T10:21:43.233Z,2.30
2024-04-18T10:22:45.695Z,2.00
2024-04-18T10:23:37.436Z,1.90
2024-04-18T10:24:36.599Z,2.10
2024-04-18T10:25:36.410Z,2.20
2024-04-18T10:26:36.394Z,2.00
2024-04-18T10:27:36.408Z,2.10
2024-04-18T10:28:36.355Z,2.00
2024-04-18T10:29:36.329Z,1.90
2024-04-18T10:30:36.459Z,2.00
2024-04-18T10:31:36.317Z,2.10
2024-04-18T10:32:36.340Z,2.00
2024-04-18T10:33:36.370Z,2.00
2024-04-18T10:34:36.270Z,2.10
2024-04-18T10:35:36.264Z,2.10
2024-04-18T10:36:36.403Z,2.30
2024-04-18T10:37:36.254Z,2.10
2024-04-18T10:38:36.231Z,2.00
2024-04-18T10:39:36.317Z,2.00
2024-04-18T10:40:36.194Z,1.80
2024-04-18T10:41:36.175Z,1.70
2024-04-18T10:42:36.366Z,1.80
2024-04-18T10:43:36.154Z,1.80
2024-04-18T10:44:36.175Z,1.70
2024-04-18T10:45:36.167Z,1.60
2024-04-18T10:46:36.118Z,1.40
2024-04-18T10:47:36.196Z,1.70
2024-04-18T10:48:36.264Z,1.80
2024-04-18T10:49:36.182Z,1.70
2024-04-18T10:50:36.174Z,1.80
2024-04-18T10:51:36.144Z,1.80
2024-04-18T10:52:36.036Z,1.80
2024-04-18T10:53:36.010Z,1.60
2024-04-18T10:54:36.115Z,1.50
2024-04-18T10:55:35.977Z,1.70
2024-04-18T10:56:35.977Z,1.40
2024-04-18T10:57:36.034Z,1.90
2024-04-18T10:58:35.942Z,1.60
2024-04-18T10:59:35.987Z,1.60
2024-04-18T11:00:35.997Z,1.90
2024-04-18T11:01:36.594Z,1.70
2024-04-18T11:02:35.952Z,1.70
2024-04-18T11:03:36.214Z,1.90
2024-04-18T11:04:35.954Z,1.80
2024-04-18T11:05:35.928Z,1.70
2024-04-18T11:06:35.969Z,1.40
2024-04-18T11:07:35.831Z,1.50
2024-04-18T11:08:35.859Z,1.60
2024-04-18T11:09:35.861Z,1.50
2024-04-18T11:10:35.793Z,1.40
2024-04-18T11:11:35.783Z,1.60
2024-04-18T11:12:35.837Z,1.60
2024-04-18T11:13:35.770Z,1.60
2024-04-18T11:14:35.755Z,1.50
2024-04-18T11:15:35.771Z,1.70
2024-04-18T11:16:35.705Z,1.60
2024-04-18T11:17:35.737Z,1.70
2024-04-18T11:18:35.726Z,1.70
2024-04-18T11:19:35.670Z,1.70
2024-04-18T11:20:35.643Z,1.80
2024-04-18T11:21:35.670Z,1.50
2024-04-18T11:22:35.614Z,1.60
2024-04-18T11:23:44.121Z,1.70
2024-04-18T11:24:36.703Z,1.70
2024-04-18T11:25:35.575Z,1.70
2024-04-18T11:26:35.564Z,1.50
2024-04-18T11:27:35.668Z,1.70
2024-04-18T11:28:35.541Z,1.50
2024-04-18T11:29:35.542Z,1.70
2024-04-18T11:30:35.557Z,1.50
2024-04-18T11:31:35.568Z,1.60
2024-04-18T11:32:35.503Z,1.70
2024-04-18T11:33:35.537Z,1.40
2024-04-18T11:34:35.459Z,1.20
2024-04-18T11:35:35.438Z,1.30
2024-04-18T11:36:35.467Z,1.50
2024-04-18T11:37:35.408Z,1.30
2024-04-18T11:38:35.404Z,1.30
2024-04-18T11:39:35.456Z,1.40
2024-04-18T11:40:35.365Z,1.30
2024-04-18T11:41:35.378Z,1.90
2024-04-18T11:42:35.405Z,1.50
2024-04-18T11:43:35.352Z,1.60
2024-04-18T11:44:35.316Z,1.70
2024-04-18T11:45:35.338Z,1.70
2024-04-18T11:46:35.302Z,1.80
2024-04-18T11:47:35.337Z,1.70
2024-04-18T11:48:35.446Z,1.40
2024-04-18T11:49:35.259Z,1.40
2024-04-18T11:50:35.229Z,1.50
2024-04-18T11:51:35.279Z,1.60
2024-04-18T11:52:35.229Z,1.60
2024-04-18T11:53:35.197Z,1.40
2024-04-18T11:54:35.192Z,1.40
2024-04-18T11:55:35.173Z,1.30
2024-04-18T11:56:35.170Z,1.40
2024-04-18T11:57:35.210Z,1.40
2024-04-18T11:58:35.133Z,1.20
2024-04-18T11:59:35.118Z,1.30
2024-04-18T12:00:35.220Z,1.20
2024-04-18T12:01:35.121Z,1.20
2024-04-18T12:02:35.075Z,1.40
2024-04-18T12:03:35.104Z,1.30
2024-04-18T12:04:35.069Z,1.30
2024-04-18T12:05:35.037Z,1.20
2024-04-18T12:06:35.145Z,1.50
2024-04-18T12:07:35.020Z,1.30
2024-04-18T12:08:35.015Z,1.40
2024-04-18T12:09:35.113Z,1.30
2024-04-18T12:10:34.980Z,1.30
2024-04-18T12:11:35.022Z,1.50
2024-04-18T12:12:34.982Z,1.50
2024-04-18T12:13:35.016Z,1.30
2024-04-18T12:14:34.911Z,1.50
2024-04-18T12:15:35.014Z,1.60
2024-04-18T12:16:34.921Z,1.50
2024-04-18T12:17:34.902Z,1.30
2024-04-18T12:18:34.900Z,1.40
2024-04-18T12:19:34.838Z,1.40
2024-04-18T12:20:34.836Z,1.50
2024-04-18T12:21:34.871Z,1.50
2024-04-18T12:22:34.862Z,1.50
2024-04-18T12:23:34.778Z,1.60
2024-04-18T12:24:34.818Z,1.50
2024-04-18T12:25:34.841Z,1.60
2024-04-18T12:26:34.744Z,1.50
2024-04-18T12:27:34.765Z,1.60
2024-04-18T12:28:34.710Z,2.00
2024-04-18T12:29:34.741Z,1.40
2024-04-18T12:30:34.880Z,1.40
2024-04-18T12:31:34.699Z,1.30
2024-04-18T12:32:34.724Z,1.50
2024-04-18T12:33:34.717Z,1.40
2024-04-18T12:34:34.653Z,1.40
2024-04-18T12:35:34.632Z,1.30
2024-04-18T12:36:34.641Z,1.40
2024-04-18T12:37:34.602Z,1.50
2024-04-18T12:38:34.628Z,1.50
2024-04-18T12:39:34.627Z,1.70
2024-04-18T12:40:34.576Z,1.40
2024-04-18T12:41:34.553Z,1.30
2024-04-18T12:42:34.577Z,1.60
2024-04-18T12:43:34.557Z,1.50
2024-04-18T12:44:34.492Z,1.60
2024-04-18T12:45:35.910Z,1.30
2024-04-18T12:46:34.559Z,1.40
2024-04-18T12:47:34.555Z,1.50
2024-04-18T12:48:35.647Z,1.60
2024-04-18T12:49:34.597Z,1.50
2024-04-18T12:50:34.454Z,1.60
2024-04-18T12:51:34.456Z,1.40
2024-04-18T12:52:34.399Z,1.60
2024-04-18T12:53:34.412Z,1.50
2024-04-18T12:54:34.410Z,1.60
2024-04-18T12:55:34.345Z,1.70
2024-04-18T12:56:34.354Z,1.50
2024-04-18T12:57:34.397Z,1.60
2024-04-18T12:58:34.332Z,1.70
2024-04-18T12:59:34.307Z,1.60
2024-04-18T13:00:34.387Z,1.70
2024-04-18T13:01:34.313Z,1.60
2024-04-18T13:02:34.318Z,1.90
2024-04-18T13:03:34.349Z,1.90